Time;durP1;ratioP1;P1;durP2;ratioP2;P2;SDS_P1;SDS_P2;PMS_P1;PMS_P2;Temp;Humidity;BMP_temperature;BMP_pressure;BME280_temperature;BME280_humidity;BME280_pressure;Samples;Min_cycle;Max_cycle;Signal;HPM_P1;HPM_P2
2021/09/05 00:00:15;;;;;;;13.55;10.07;;;436.00;2355.20;;;;;;4996839;28;20030;-82
2021/09/05 00:02:43;;;;;;;12.82;10.07;;;436.00;2355.20;;;;;;5004333;28;20030;-81
2021/09/05 00:05:12;;;;;;;14.35;10.60;;;435.90;2355.20;;;;;;4990989;28;20469;-80
2021/09/05 00:07:38;;;;;;;14.35;10.70;;;435.90;2355.20;;;;;;4998747;28;20489;-77
2021/09/05 00:10:04;;;;;;;15.05;11.48;;;435.80;2355.20;;;;;;5002262;28;20038;-78
2021/09/05 00:12:30;;;;;;;13.75;9.68;;;435.80;2355.20;;;;;;5005699;28;20109;-78
2021/09/05 00:14:56;;;;;;;14.95;9.02;;;435.80;2355.20;;;;;;5004248;28;20113;-78
2021/09/05 00:17:34;;;;;;;15.10;10.38;;;435.70;2355.20;;;;;;4998985;28;20440;-78
2021/09/05 00:20:04;;;;;;;14.52;10.57;;;435.70;2355.20;;;;;;5006471;28;20038;-78
2021/09/05 00:22:36;;;;;;;18.20;9.70;;;435.70;2355.20;;;;;;4997712;28;20026;-78
2021/09/05 00:25:03;;;;;;;13.43;10.60;;;435.80;2355.20;;;;;;5007446;28;20033;-78
2021/09/05 00:27:29;;;;;;;14.32;10.48;;;435.70;2355.20;;;;;;5004152;28;20026;-78
2021/09/05 00:29:54;;;;;;;17.33;10.15;;;435.70;2355.20;;;;;;4999981;28;20053;-79
2021/09/05 00:32:23;;;;;;;15.05;9.57;;;435.70;2355.20;;;;;;5014519;28;20029;-79
2021/09/05 00:34:48;;;;;;;15.35;10.52;;;435.70;2355.20;;;;;;5004936;28;20048;-79
2021/09/05 00:37:14;;;;;;;14.60;9.50;;;435.60;2355.20;;;;;;5007096;28;20478;-79
2021/09/05 00:39:43;;;;;;;12.93;9.65;;;435.50;2355.20;;;;;;5020899;28;20053;-79
2021/09/05 00:42:09;;;;;;;13.10;10.93;;;435.60;2355.20;;;;;;5034488;28;20025;-79
2021/09/05 00:44:34;;;;;;;16.33;10.90;;;435.60;2355.20;;;;;;5034581;28;20026;-79
2021/09/05 00:47:00;;;;;;;14.32;10.82;;;435.60;2355.20;;;;;;5033267;28;20037;-79
2021/09/05 00:49:26;;;;;;;16.05;11.10;;;435.70;2355.20;;;;;;5008639;28;20022;-79
2021/09/05 00:51:55;;;;;;;16.77;10.77;;;435.70;2355.20;;;;;;5019382;28;20033;-79
2021/09/05 00:54:27;;;;;;;12.10;9.75;;;435.80;2355.20;;;;;;5028616;28;20175;-79
2021/09/05 00:56:55;;;;;;;15.43;9.13;;;435.70;2355.20;;;;;;5002401;28;20029;-79
2021/09/05 00:59:27;;;;;;;14.70;9.27;;;435.70;2355.20;;;;;;5029716;28;20033;-78
2021/09/05 01:01:56;;;;;;;13.07;10.20;;;435.70;2355.20;;;;;;5033537;28;20384;-78
2021/09/05 01:04:22;;;;;;;14.85;9.57;;;435.50;2355.20;;;;;;5028197;28;20098;-78
2021/09/05 01:06:48;;;;;;;12.77;9.30;;;435.70;2355.20;;;;;;5003281;28;20117;-78
2021/09/05 01:09:13;;;;;;;14.07;9.57;;;435.70;2355.20;;;;;;5013891;28;20480;-78
2021/09/05 01:11:39;;;;;;;16.83;10.30;;;435.60;2355.20;;;;;;4995301;28;20369;-77
2021/09/05 01:14:09;;;;;;;18.05;12.45;;;435.70;2355.20;;;;;;5008704;28;20061;-78
2021/09/05 01:16:37;;;;;;;15.15;10.60;;;435.70;2355.20;;;;;;5015276;28;20160;-78
2021/09/05 01:19:17;;;;;;;13.25;10.90;;;435.50;2355.20;;;;;;5014690;28;20022;-78
2021/09/05 01:21:44;;;;;;;12.98;9.68;;;435.50;2355.20;;;;;;5019859;28;20029;-78
2021/09/05 01:24:11;;;;;;;14.10;9.80;;;435.50;2355.20;;;;;;5021799;28;20091;-78
2021/09/05 01:26:47;;;;;;;14.48;10.23;;;435.40;2355.20;;;;;;5033280;28;20376;-78
2021/09/05 01:29:19;;;;;;;15.40;10.93;;;435.40;2355.20;;;;;;5019389;28;20026;-78
2021/09/05 01:31:48;;;;;;;14.57;11.20;;;435.50;2355.20;;;;;;5034191;28;20419;-77
2021/09/05 01:34:16;;;;;;;14.40;9.95;;;435.50;2355.20;;;;;;5022745;28;20022;-78
2021/09/05 01:36:43;;;;;;;15.45;12.00;;;435.40;2355.20;;;;;;5010788;28;20038;-78
2021/09/05 01:39:11;;;;;;;18.70;11.88;;;435.40;2355.20;;;;;;5034461;28;20100;-77
2021/09/05 01:41:37;;;;;;;14.80;10.73;;;435.30;2355.20;;;;;;5034220;28;20020;-78
2021/09/05 01:44:05;;;;;;;12.98;10.15;;;435.40;2355.20;;;;;;5001006;28;20022;-77
2021/09/05 01:46:31;;;;;;;15.43;9.82;;;435.40;2355.20;;;;;;5013480;28;20022;-78
2021/09/05 01:48:58;;;;;;;15.98;10.63;;;435.40;2355.20;;;;;;5030535;28;20507;-79
2021/09/05 01:51:27;;;;;;;14.93;11.57;;;435.40;2355.20;;;;;;5026071;28;20034;-78
2021/09/05 01:53:59;;;;;;;16.17;9.80;;;435.50;2355.20;;;;;;5028684;28;20806;-79
2021/09/05 01:56:29;;;;;;;13.82;10.90;;;435.50;2355.20;;;;;;5017574;28;20038;-78
2021/09/05 01:59:00;;;;;;;15.68;11.07;;;435.50;2355.20;;;;;;5008574;28;20041;-78
2021/09/05 02:01:30;;;;;;;14.10;9.77;;;435.50;2355.20;;;;;;5018612;28;20065;-78
2021/09/05 02:03:56;;;;;;;12.98;10.48;;;435.80;2355.20;;;;;;4993528;28;20038;-78
2021/09/05 02:06:22;;;;;;;16.17;10.77;;;435.50;2355.20;;;;;;5033600;28;20388;-78
2021/09/05 02:08:48;;;;;;;15.50;11.20;;;435.50;2355.20;;;;;;5032707;28;20032;-78
2021/09/05 02:11:14;;;;;;;15.73;11.38;;;435.50;2355.20;;;;;;5014557;28;20021;-78
2021/09/05 02:27:08;;;;;;;19.33;12.85;;;435.30;2355.20;;;;;;5006059;28;20085;-79
2021/09/05 02:30:11;;;;;;;17.35;10.85;;;435.30;2355.20;;;;;;5024696;28;20057;-80
2021/09/05 02:32:37;;;;;;;17.38;10.93;;;435.20;2355.20;;;;;;5000905;28;20030;-79
2021/09/05 02:35:04;;;;;;;15.05;11.20;;;410.50;2355.20;;;;;;4999127;28;20030;-78
2021/09/05 02:37:30;;;;;;;16.63;11.40;;;410.50;2355.20;;;;;;5025936;28;20133;-79
2021/09/05 02:39:55;;;;;;;17.05;11.50;;;410.50;2355.20;;;;;;5001397;28;20105;-79
2021/09/05 02:42:21;;;;;;;14.50;10.73;;;410.40;2355.20;;;;;;5020088;28;20408;-79
2021/09/05 02:44:47;;;;;;;21.75;12.27;;;410.30;2355.20;;;;;;5012717;28;20083;-79
2021/09/05 02:47:13;;;;;;;12.98;10.95;;;410.30;2355.20;;;;;;5028503;28;20037;-79
2021/09/05 02:49:38;;;;;;;18.13;12.20;;;410.30;2355.20;;;;;;5009798;28;20032;-78
2021/09/05 02:52:09;;;;;;;15.27;12.27;;;410.30;2355.20;;;;;;5018330;28;20028;-78
2021/09/05 02:54:38;;;;;;;15.82;11.88;;;410.20;2355.20;;;;;;5017800;28;20499;-79
2021/09/05 02:57:08;;;;;;;19.00;11.27;;;410.20;2355.20;;;;;;5023150;28;20100;-79
2021/09/05 02:59:37;;;;;;;16.85;11.88;;;410.10;2355.20;;;;;;5026670;28;20500;-79
2021/09/05 03:02:09;;;;;;;23.42;14.10;;;410.10;2355.20;;;;;;5012541;28;20377;-78
2021/09/05 03:04:37;;;;;;;17.77;13.88;;;410.10;2355.20;;;;;;5015220;28;20033;-78
2021/09/05 03:07:06;;;;;;;18.60;13.80;;;410.10;2355.20;;;;;;5040355;28;20029;-78
2021/09/05 03:09:40;;;;;;;17.00;12.30;;;410.10;2355.20;;;;;;5017555;28;20033;-78
2021/09/05 03:12:06;;;;;;;16.70;12.45;;;410.00;2355.20;;;;;;5032228;28;20026;-78
2021/09/05 03:14:32;;;;;;;17.35;13.27;;;409.80;2355.20;;;;;;5032620;28;20104;-78
2021/09/05 03:16:58;;;;;;;21.00;13.02;;;384.90;2329.60;;;;;;5021260;28;20507;-78
2021/09/05 03:19:26;;;;;;;19.23;13.35;;;384.90;2329.60;;;;;;5025278;28;20025;-78
2021/09/05 03:21:58;;;;;;;18.40;13.07;;;409.60;2355.20;;;;;;5019455;28;20025;-78
2021/09/05 03:24:27;;;;;;;17.80;13.27;;;409.70;2355.20;;;;;;5017662;28;20193;-78
2021/09/05 03:26:53;;;;;;;19.33;13.15;;;409.70;2355.20;;;;;;5018653;28;20021;-78
2021/09/05 03:29:18;;;;;;;19.38;13.48;;;409.70;2355.20;;;;;;5032051;28;20048;-78
2021/09/05 03:31:47;;;;;;;18.90;13.57;;;409.70;2355.20;;;;;;5029768;28;20033;-78
2021/09/05 03:34:13;;;;;;;17.95;13.70;;;409.70;2355.20;;;;;;5019557;28;20042;-78
2021/09/05 03:36:38;;;;;;;22.48;13.70;;;409.70;2355.20;;;;;;5028424;28;20079;-79
2021/09/05 03:39:04;;;;;;;18.73;13.38;;;409.60;2355.20;;;;;;5030452;28;20431;-79
2021/09/05 03:41:30;;;;;;;20.08;13.07;;;384.90;2329.60;;;;;;5030478;28;20018;-81
2021/09/05 03:43:56;;;;;;;20.42;13.48;;;409.60;2355.20;;;;;;5026084;28;20022;-85
2021/09/05 03:46:21;;;;;;;23.02;15.18;;;409.60;2355.20;;;;;;5025856;28;20021;-84
2021/09/05 03:48:47;;;;;;;20.38;13.95;;;384.90;2329.60;;;;;;5033180;28;20038;-84
2021/09/05 03:51:13;;;;;;;16.48;12.52;;;384.90;2329.60;;;;;;5019464;28;20028;-84
2021/09/05 03:53:38;;;;;;;15.93;12.30;;;384.90;2329.60;;;;;;5023721;28;20113;-84
2021/09/05 03:56:07;;;;;;;15.77;11.85;;;409.60;2355.20;;;;;;5029868;28;20036;-84
2021/09/05 03:58:39;;;;;;;15.57;12.68;;;409.60;2355.20;;;;;;5035036;28;20045;-83
2021/09/05 04:01:08;;;;;;;17.38;12.55;;;409.70;2355.20;;;;;;5024960;28;20022;-83
2021/09/05 04:03:40;;;;;;;15.52;11.20;;;409.70;2355.20;;;;;;5028227;28;20499;-82
2021/09/05 04:06:09;;;;;;;19.83;12.82;;;409.80;2355.20;;;;;;5022229;28;20056;-84
2021/09/05 04:08:46;;;;;;;14.57;11.38;;;409.80;2355.20;;;;;;5031894;28;20021;-84
2021/09/05 04:11:12;;;;;;;19.02;12.50;;;409.90;2355.20;;;;;;5028436;28;20108;-83
2021/09/05 04:13:40;;;;;;;17.45;12.60;;;410.10;2355.20;;;;;;5012029;28;20109;-83
2021/09/05 04:16:09;;;;;;;18.10;12.90;;;410.10;2355.20;;;;;;5024766;28;20152;-83
2021/09/05 04:18:41;;;;;;;16.23;11.90;;;410.20;2355.20;;;;;;5011883;28;20041;-83
2021/09/05 04:21:09;;;;;;;17.45;13.02;;;410.20;2355.20;;;;;;5016735;28;20022;-83
2021/09/05 04:23:35;;;;;;;21.00;12.35;;;410.20;2355.20;;;;;;5030877;28;20124;-83
2021/09/05 04:26:01;;;;;;;16.65;11.82;;;410.30;2355.20;;;;;;5031675;28;20096;-83
2021/09/05 04:28:29;;;;;;;14.05;10.35;;;410.30;2355.20;;;;;;5022210;28;20065;-84
2021/09/05 04:31:01;;;;;;;13.82;11.10;;;410.40;2355.20;;;;;;5025721;28;20048;-84
2021/09/05 04:33:30;;;;;;;15.60;11.10;;;410.50;2355.20;;;;;;5031058;28;20168;-84
2021/09/05 04:36:03;;;;;;;16.02;12.38;;;410.40;2355.20;;;;;;5016675;28;20861;-85
2021/09/05 04:38:29;;;;;;;12.82;10.25;;;410.50;2355.20;;;;;;5023390;28;20480;-84
2021/09/05 04:40:54;;;;;;;18.50;10.88;;;410.40;2355.20;;;;;;5024763;28;20026;-85
2021/09/05 04:43:20;;;;;;;13.38;9.32;;;410.50;2355.20;;;;;;5032722;28;20386;-84
2021/09/05 04:45:46;;;;;;;13.13;10.02;;;410.50;2355.20;;;;;;5039464;28;20052;-84
2021/09/05 04:48:12;;;;;;;13.90;10.68;;;435.20;2355.20;;;;;;5028099;28;20029;-84
2021/09/05 04:50:37;;;;;;;13.23;10.55;;;435.20;2355.20;;;;;;5034477;28;20057;-82
2021/09/05 04:53:03;;;;;;;12.98;10.32;;;435.40;2355.20;;;;;;5018167;28;20035;-82
2021/09/05 04:55:35;;;;;;;13.88;9.35;;;435.40;2355.20;;;;;;5024023;28;20427;-83
2021/09/05 04:58:00;;;;;;;14.65;9.32;;;435.40;2355.20;;;;;;5025782;28;20112;-83
2021/09/05 05:00:33;;;;;;;13.40;9.63;;;435.50;2355.20;;;;;;5022611;28;20107;-83
2021/09/05 05:03:02;;;;;;;15.93;8.90;;;435.50;2355.20;;;;;;5028827;28;20022;-83
2021/09/05 05:05:38;;;;;;;13.52;9.25;;;435.60;2355.20;;;;;;5034658;28;20048;-83
2021/09/05 05:08:04;;;;;;;13.02;8.90;;;435.70;2355.20;;;;;;5023565;28;20022;-83
2021/09/05 05:10:33;;;;;;;14.13;9.13;;;435.70;2355.20;;;;;;5030161;28;20438;-83
2021/09/05 05:13:02;;;;;;;12.18;9.30;;;435.80;2355.20;;;;;;5031507;28;20026;-82
2021/09/05 05:15:34;;;;;;;14.00;9.60;;;435.80;2355.20;;;;;;5029975;28;20037;-82
2021/09/05 05:18:03;;;;;;;11.88;8.40;;;435.90;2355.20;;;;;;5030109;28;20087;-83
2021/09/05 05:20:43;;;;;;;10.02;7.70;;;435.90;2355.20;;;;;;5030395;28;20030;-83
2021/09/05 05:23:12;;;;;;;9.75;7.88;;;435.90;2355.20;;;;;;5011472;28;20026;-84
2021/09/05 05:25:44;;;;;;;12.25;7.43;;;436.00;2355.20;;;;;;5030037;28;20032;-84
2021/09/05 05:28:15;;;;;;;12.52;8.00;;;436.00;2355.20;;;;;;5018933;28;20021;-84
2021/09/05 05:30:41;;;;;;;11.52;8.38;;;460.80;2380.80;;;;;;5034878;28;20025;-84
2021/09/05 05:33:07;;;;;;;11.77;7.88;;;460.90;2380.80;;;;;;5035007;28;20031;-84
2021/09/05 05:35:33;;;;;;;10.65;7.15;;;461.00;2380.80;;;;;;5034756;28;20092;-83
2021/09/05 05:37:58;;;;;;;11.38;7.57;;;461.10;2380.80;;;;;;5030460;28;20046;-84
2021/09/05 05:40:25;;;;;;;10.82;7.50;;;461.10;2380.80;;;;;;5023774;28;20075;-83
2021/09/05 05:42:55;;;;;;;9.32;7.38;;;461.10;2380.80;;;;;;5034702;28;20017;-83
2021/09/05 05:45:21;;;;;;;8.77;7.15;;;461.30;2380.80;;;;;;5034427;28;20017;-83
2021/09/05 05:47:52;;;;;;;9.68;7.55;;;461.30;2380.80;;;;;;5020507;28;20112;-83
2021/09/05 05:50:18;;;;;;;11.73;8.48;;;461.40;2380.80;;;;;;5015207;28;20033;-83
2021/09/05 05:52:47;;;;;;;10.00;7.28;;;461.40;2380.80;;;;;;5018950;28;20065;-84
2021/09/05 05:55:16;;;;;;;10.68;7.07;;;461.50;2380.80;;;;;;5045175;28;20033;-82
2021/09/05 05:57:48;;;;;;;11.73;6.18;;;461.60;2380.80;;;;;;5031012;28;20037;-82
2021/09/05 06:00:17;;;;;;;11.13;6.47;;;486.40;2380.80;;;;;;5043617;28;20500;-83
2021/09/05 06:02:43;;;;;;;9.43;6.80;;;486.50;2380.80;;;;;;5024696;28;20120;-82
2021/09/05 06:05:15;;;;;;;9.77;6.90;;;486.60;2380.80;;;;;;5029824;28;20100;-84
2021/09/05 06:07:43;;;;;;;10.32;6.50;;;486.70;2380.80;;;;;;5025779;28;20087;-84
2021/09/05 06:10:09;;;;;;;13.30;8.10;;;486.90;2380.80;;;;;;5029674;28;20021;-82
2021/09/05 06:12:35;;;;;;;11.90;7.05;;;487.10;2380.80;;;;;;5031821;28;20035;-82
2021/09/05 06:15:04;;;;;;;6.85;5.70;;;487.30;2380.80;;;;;;5030329;28;20025;-83
2021/09/05 06:17:35;;;;;;;14.07;6.60;;;512.10;2380.80;;;;;;5031936;28;20029;-83
2021/09/05 06:20:08;;;;;;;8.23;6.32;;;512.30;2380.80;;;;;;5031311;28;20033;-84
2021/09/05 06:22:37;;;;;;;8.50;6.13;;;512.30;2380.80;;;;;;5036962;28;20025;-84
2021/09/05 06:25:18;;;;;;;10.52;6.65;;;512.40;2380.80;;;;;;5019284;28;20022;-85
2021/09/05 06:27:44;;;;;;;8.60;6.32;;;512.70;2380.80;;;;;;5040954;28;20026;-82
2021/09/05 06:30:10;;;;;;;10.90;5.72;;;512.90;2380.80;;;;;;5033850;28;20443;-81
2021/09/05 06:32:36;;;;;;;10.85;6.20;;;537.70;2406.40;;;;;;5025523;28;20384;-83
2021/09/05 06:35:05;;;;;;;13.10;6.78;;;537.90;2406.40;;;;;;5024408;28;20468;-81
2021/09/05 06:37:37;;;;;;;6.72;6.03;;;538.00;2406.40;;;;;;5025187;28;20041;-81
2021/09/05 06:40:07;;;;;;;8.05;5.68;;;538.30;2406.40;;;;;;5025216;28;20116;-81
2021/09/05 06:42:32;;;;;;;8.23;6.03;;;563.30;2432.00;;;;;;5025431;28;20484;-80
2021/09/05 06:44:58;;;;;;;7.85;5.72;;;563.20;2432.00;;;;;;5029975;28;20056;-80
2021/09/05 06:47:24;;;;;;;8.35;5.88;;;563.40;2432.00;;;;;;5024287;28;20037;-85
2021/09/05 06:49:50;;;;;;;8.73;6.00;;;563.60;2432.00;;;;;;5025762;28;20041;-81
2021/09/05 06:52:15;;;;;;;11.20;7.18;;;563.90;2432.00;;;;;;5022552;28;20807;-83
2021/09/05 06:54:47;;;;;;;13.98;6.45;;;588.80;2432.00;;;;;;5027528;28;20124;-80
2021/09/05 06:57:15;;;;;;;7.60;5.43;;;588.80;2432.00;;;;;;5018258;28;20084;-80
2021/09/05 06:59:41;;;;;;;11.25;7.13;;;588.80;2432.00;;;;;;5025756;28;20045;-81
2021/09/05 07:02:07;;;;;;;11.65;7.25;;;588.90;2432.00;;;;;;5038310;28;20039;-80
2021/09/05 07:04:36;;;;;;;15.65;6.95;;;589.10;2432.00;;;;;;5031246;28;20532;-81
2021/09/05 07:07:08;;;;;;;14.73;7.25;;;589.20;2432.00;;;;;;5031232;28;20033;-81
2021/09/05 07:09:37;;;;;;;8.80;6.20;;;589.30;2432.00;;;;;;5047403;28;20039;-81
2021/09/05 07:12:03;;;;;;;7.93;6.30;;;589.50;2432.00;;;;;;5036073;28;20103;-81
2021/09/05 07:14:31;;;;;;;7.40;6.05;;;614.40;2432.00;;;;;;5037628;28;20029;-80
2021/09/05 07:17:00;;;;;;;8.65;5.70;;;614.50;2432.00;;;;;;5033105;28;20491;-81
2021/09/05 07:19:26;;;;;;;7.78;5.15;;;614.80;2432.00;;;;;;5033512;28;20044;-81
2021/09/05 07:21:52;;;;;;;7.47;5.88;;;614.90;2432.00;;;;;;5046817;28;20025;-81
2021/09/05 07:24:24;;;;;;;10.27;5.32;;;615.00;2432.00;;;;;;5040079;28;20033;-80
2021/09/05 07:26:49;;;;;;;9.40;6.40;;;615.30;2432.00;;;;;;5035883;28;20021;-81
2021/09/05 07:29:17;;;;;;;7.82;5.20;;;640.00;2432.00;;;;;;5033659;28;20030;-81
2021/09/05 07:31:49;;;;;;;8.73;5.75;;;640.20;2432.00;;;;;;5028646;28;20480;-80
2021/09/05 07:34:21;;;;;;;9.73;5.68;;;640.50;2432.00;;;;;;5032048;28;20032;-81
2021/09/05 07:36:50;;;;;;;8.80;5.20;;;665.60;2432.00;;;;;;5031866;28;20025;-80
2021/09/05 07:39:15;;;;;;;7.57;5.28;;;665.60;2432.00;;;;;;5030502;28;20491;-79
2021/09/05 07:41:41;;;;;;;9.27;5.57;;;665.80;2432.00;;;;;;5031835;28;20021;-82
2021/09/05 07:44:07;;;;;;;10.85;5.30;;;666.20;2432.00;;;;;;5031199;28;20087;-80
2021/09/05 07:46:33;;;;;;;7.93;4.72;;;666.50;2432.00;;;;;;5039929;28;20025;-82
2021/09/05 07:48:58;;;;;;;9.45;5.25;;;691.20;2432.00;;;;;;5030325;28;20040;-85
2021/09/05 07:51:30;;;;;;;9.45;5.05;;;691.20;2432.00;;;;;;5035180;28;20036;-82
2021/09/05 07:53:56;;;;;;;6.90;5.05;;;691.40;2355.20;;;;;;5046932;28;20036;-81
2021/09/05 07:56:21;;;;;;;7.57;5.05;;;691.50;2355.20;;;;;;5031262;28;20384;-82
2021/09/05 07:58:50;;;;;;;9.02;4.50;;;691.80;2329.60;;;;;;5041384;28;20470;-82
2021/09/05 08:01:16;;;;;;;8.30;5.20;;;692.00;2278.40;;;;;;5032197;28;20411;-82
2021/09/05 08:03:42;;;;;;;7.85;5.22;;;692.00;2278.40;;;;;;5035462;28;20022;-80
2021/09/05 08:06:10;;;;;;;7.80;5.60;;;716.80;2278.40;;;;;;5029645;28;20030;-82
2021/09/05 08:08:42;;;;;;;6.28;4.80;;;716.80;2201.60;;;;;;5034453;28;20037;-80
2021/09/05 08:11:11;;;;;;;6.40;4.50;;;716.80;2150.40;;;;;;5041928;28;20036;-81
2021/09/05 08:13:37;;;;;;;8.23;5.00;;;717.10;2124.80;;;;;;5040826;28;20031;-82
2021/09/05 08:16:03;;;;;;;6.72;5.22;;;717.40;2124.80;;;;;;5034187;28;20503;-80
2021/09/05 08:18:42;;;;;;;6.25;4.47;;;717.50;2048.00;;;;;;5031161;28;20061;-80
2021/09/05 08:21:12;;;;;;;8.88;4.60;;;717.50;2048.00;;;;;;5042409;28;20029;-80
2021/09/05 08:23:38;;;;;;;8.55;4.80;;;717.70;1996.80;;;;;;5042377;28;20090;-80
2021/09/05 08:26:06;;;;;;;7.10;4.85;;;742.40;1996.80;;;;;;5037324;28;20022;-81
2021/09/05 08:28:32;;;;;;;7.47;4.80;;;742.40;1971.20;;;;;;5030799;28;20037;-80
2021/09/05 08:31:01;;;;;;;7.18;4.30;;;742.70;1971.20;;;;;;5012386;28;20415;-80
2021/09/05 08:33:27;;;;;;;6.78;4.50;;;743.00;1945.60;;;;;;5026629;28;20543;-80
2021/09/05 08:35:55;;;;;;;7.70;4.82;;;742.90;1945.60;;;;;;5025564;28;20038;-80
2021/09/05 08:38:25;;;;;;;9.93;5.45;;;742.70;1920.00;;;;;;5033645;28;20026;-81
2021/09/05 08:40:53;;;;;;;7.07;4.97;;;742.80;1920.00;;;;;;5031893;28;20534;-81
2021/09/05 08:43:38;;;;;;;6.18;4.90;;;743.00;1894.40;;;;;;5030463;28;20036;-81
2021/09/05 08:46:04;;;;;;;6.65;4.93;;;743.10;1868.80;;;;;;5044130;28;20040;-81
2021/09/05 08:48:35;;;;;;;6.07;5.07;;;743.30;1843.20;;;;;;5029065;28;20483;-80
2021/09/05 08:51:00;;;;;;;9.10;5.45;;;768.00;1843.20;;;;;;5032363;28;20110;-81
2021/09/05 08:53:26;;;;;;;6.97;5.40;;;768.10;1817.60;;;;;;5033056;28;20510;-81
2021/09/05 08:55:52;;;;;;;8.80;5.68;;;768.20;1817.60;;;;;;5045366;28;20025;-81
2021/09/05 08:58:18;;;;;;;7.50;5.22;;;768.20;1766.40;;;;;;5039074;28;20049;-80
2021/09/05 09:00:44;;;;;;;10.57;4.90;;;768.30;1766.40;;;;;;5033294;28;20036;-81
2021/09/05 09:03:18;;;;;;;7.47;4.10;;;768.10;1740.80;;;;;;5035086;28;20033;-81
2021/09/05 09:05:46;;;;;;;6.30;4.20;;;768.20;1740.80;;;;;;5037817;28;20464;-80
2021/09/05 09:08:14;;;;;;;8.10;4.50;;;768.60;1689.60;;;;;;5038262;28;20043;-81
2021/09/05 09:11:01;;;;;;;7.20;4.75;;;768.40;1715.20;;;;;;5044358;28;20029;-82
2021/09/05 09:13:44;;;;;;;6.40;4.97;;;768.30;1664.00;;;;;;5043143;28;20091;-81
2021/09/05 09:16:15;;;;;;;8.93;5.25;;;768.30;1638.40;;;;;;5026890;28;20029;-81
2021/09/05 09:18:45;;;;;;;8.80;4.85;;;768.40;1664.00;;;;;;5033967;28;20503;-81
2021/09/05 09:21:18;;;;;;;7.28;4.75;;;768.40;1638.40;;;;;;5047405;28;20451;-82
2021/09/05 09:23:44;;;;;;;8.55;5.05;;;768.80;1638.40;;;;;;5039354;28;20025;-82
2021/09/05 09:26:14;;;;;;;8.30;4.45;;;793.80;1638.40;;;;;;5036285;28;20028;-81
2021/09/05 09:29:07;;;;;;;7.95;4.30;;;793.70;1638.40;;;;;;5034087;28;20120;-83
2021/09/05 09:31:37;;;;;;;5.57;4.70;;;794.10;1587.20;;;;;;5023323;28;20484;-83
2021/09/05 09:34:06;;;;;;;7.78;4.68;;;819.40;1561.60;;;;;;5048180;28;20036;-81
2021/09/05 09:36:32;;;;;;;8.57;4.82;;;819.40;1561.60;;;;;;5032990;28;20492;-82
2021/09/05 09:39:06;;;;;;;6.63;4.70;;;819.40;1561.60;;;;;;5021332;28;20044;-81
2021/09/05 09:41:37;;;;;;;8.48;4.63;;;819.40;1536.00;;;;;;5032087;28;20018;-81
2021/09/05 09:44:13;;;;;;;10.50;5.15;;;819.40;1536.00;;;;;;5039898;28;20025;-82
2021/09/05 09:46:40;;;;;;;6.28;4.75;;;819.70;1510.40;;;;;;5042707;28;20026;-81
2021/09/05 09:49:09;;;;;;;7.78;5.10;;;819.80;1459.20;;;;;;5038482;28;20030;-81
2021/09/05 09:51:38;;;;;;;8.70;4.43;;;820.10;1433.60;;;;;;5022030;28;20022;-81
2021/09/05 09:54:08;;;;;;;6.28;4.18;;;845.00;1459.20;;;;;;5039163;28;20098;-81
2021/09/05 09:56:37;;;;;;;6.53;4.20;;;845.40;1408.00;;;;;;5045554;28;20332;-82
2021/09/05 09:59:09;;;;;;;7.88;4.13;;;845.70;1382.40;;;;;;5023599;28;20487;-83
2021/09/05 10:01:39;;;;;;;6.45;4.30;;;844.80;1382.40;;;;;;5042587;28;20504;-82
2021/09/05 10:04:09;;;;;;;8.27;4.45;;;819.40;1382.40;;;;;;5025818;28;20105;-83
2021/09/05 10:06:36;;;;;;;6.88;4.10;;;819.70;1382.40;;;;;;5014710;28;20100;-81
2021/09/05 10:09:13;;;;;;;6.50;4.88;;;819.40;1382.40;;;;;;5028463;28;20088;-83
2021/09/05 10:11:39;;;;;;;5.85;4.50;;;819.70;1356.80;;;;;;5029458;28;20110;-81
2021/09/05 10:14:05;;;;;;;6.03;4.55;;;819.40;1356.80;;;;;;5024683;28;20057;-82
2021/09/05 10:16:37;;;;;;;5.97;4.20;;;819.20;1382.40;;;;;;5022222;28;20033;-83
2021/09/05 10:19:08;;;;;;;5.85;3.80;;;794.20;1356.80;;;;;;5022485;28;20033;-80
2021/09/05 10:21:36;;;;;;;8.93;4.25;;;793.80;1382.40;;;;;;5021988;28;20118;-83
2021/09/05 10:24:14;;;;;;;9.68;5.65;;;793.80;1382.40;;;;;;5022026;28;20026;-83
2021/09/05 10:27:07;;;;;;;10.32;5.10;;;768.50;1382.40;;;;;;5020347;28;20018;-84
2021/09/05 10:29:39;;;;;;;7.45;4.35;;;768.00;1408.00;;;;;;5039549;28;20561;-82
2021/09/05 10:32:08;;;;;;;5.90;3.92;;;742.90;1382.40;;;;;;5022785;28;20056;-82
2021/09/05 10:34:39;;;;;;;5.97;4.28;;;742.80;1408.00;;;;;;5026148;28;20500;-85
2021/09/05 10:37:12;;;;;;;6.70;4.38;;;742.60;1408.00;;;;;;5037032;28;20026;-85
2021/09/05 10:40:06;;;;;;;6.32;4.43;;;768.30;1305.60;;;;;;5036712;28;20026;-85
2021/09/05 10:42:59;;;;;;;9.50;8.55;;;794.30;1305.60;;;;;;5018364;28;20041;-85
2021/09/05 10:45:26;;;;;;;11.02;7.00;;;794.30;1228.80;;;;;;4971477;28;20041;-83
2021/09/05 10:47:51;;;;;;;7.95;5.97;;;819.60;1254.40;;;;;;4988533;28;20038;-84
2021/09/05 10:50:34;;;;;;;8.00;6.55;;;845.00;1254.40;;;;;;4975142;28;20280;-82
2021/09/05 10:53:23;;;;;;;5.10;4.25;;;870.40;1228.80;;;;;;4986754;28;20038;-84
2021/09/05 10:56:13;;;;;;;6.30;5.05;;;845.00;1203.20;;;;;;4990750;28;20034;-85
2021/09/05 10:58:51;;;;;;;5.78;4.35;;;845.40;1203.20;;;;;;4975125;28;20134;-82
2021/09/05 11:01:23;;;;;;;6.10;3.75;;;870.90;1126.40;;;;;;4976372;28;20068;-82
2021/09/05 11:04:10;;;;;;;5.55;4.32;;;896.10;1075.20;;;;;;4996458;28;20150;-83
2021/09/05 11:07:01;;;;;;;6.97;4.40;;;896.50;1100.80;;;;;;4967872;28;20497;-82
2021/09/05 11:09:27;;;;;;;8.13;4.15;;;896.50;1126.40;;;;;;4966937;28;20042;-83
2021/09/05 11:12:11;;;;;;;6.18;5.07;;;896.90;1100.80;;;;;;4991521;28;20031;-83
2021/09/05 11:14:46;;;;;;;8.05;4.20;;;896.00;1152.00;;;;;;4970171;28;20533;-82
2021/09/05 11:17:22;;;;;;;7.13;4.47;;;871.20;1126.40;;;;;;4994786;28;20050;-83
2021/09/05 11:20:05;;;;;;;5.10;4.10;;;896.50;1126.40;;;;;;4974068;28;20862;-82
2021/09/05 11:22:37;;;;;;;5.68;4.35;;;896.80;1075.20;;;;;;5006505;28;20038;-82
2021/09/05 11:25:11;;;;;;;7.47;4.40;;;922.10;1100.80;;;;;;5031814;28;20030;-84
2021/09/05 11:27:42;;;;;;;32.90;7.22;;;922.10;1126.40;;;;;;5036811;28;20041;-83
2021/09/05 11:30:11;;;;;;;5.00;3.60;;;922.10;1100.80;;;;;;5027880;28;20030;-82
2021/09/05 11:32:44;;;;;;;4.88;3.83;;;921.80;1100.80;;;;;;5030909;28;20495;-82
2021/09/05 11:35:13;;;;;;;7.40;4.20;;;922.40;1075.20;;;;;;5030234;28;20095;-82
2021/09/05 11:37:45;;;;;;;10.52;5.53;;;922.40;1075.20;;;;;;5033560;28;20034;-82
2021/09/05 11:40:22;;;;;;;5.65;4.07;;;922.40;1075.20;;;;;;5022755;28;20048;-83
2021/09/05 11:42:54;;;;;;;6.13;4.20;;;947.20;1049.60;;;;;;5037351;28;20471;-82
2021/09/05 11:45:22;;;;;;;6.63;4.07;;;947.30;1075.20;;;;;;5023183;28;20033;-85
2021/09/05 11:48:02;;;;;;;6.00;3.88;;;947.50;1049.60;;;;;;5039118;28;20029;-84
2021/09/05 11:50:35;;;;;;;4.90;3.70;;;948.00;1024.00;;;;;;5022741;28;20022;-84
2021/09/05 11:53:05;;;;;;;5.60;4.18;;;948.10;1024.00;;;;;;5034105;28;20057;-82
2021/09/05 11:55:31;;;;;;;6.35;4.50;;;973.20;1024.00;;;;;;5035996;28;20022;-84
2021/09/05 11:58:02;;;;;;;8.55;4.28;;;973.10;1049.60;;;;;;5035996;28;20033;-84
2021/09/05 12:00:37;;;;;;;5.22;3.63;;;947.80;1024.00;;;;;;5027173;28;20115;-84
2021/09/05 12:03:04;;;;;;;;;;;921.80;1075.20;;;;;;5030621;28;20026;-81
2021/09/05 12:05:35;;;;;;;5.10;3.72;;;870.90;1100.80;;;;;;5015852;28;19931;-82
2021/09/05 12:08:05;;;;;;;5.93;3.72;;;845.20;1152.00;;;;;;5028323;28;20018;-82
2021/09/05 12:10:35;;;;;;;5.97;3.95;;;819.90;1177.60;;;;;;5017746;28;20038;-81
2021/09/05 12:13:14;;;;;;;7.88;3.85;;;819.20;1203.20;;;;;;5030261;28;20021;-83
2021/09/05 12:15:48;;;;;;;4.70;3.35;;;820.10;1152.00;;;;;;5026210;28;20045;-80
2021/09/05 12:18:29;;;;;;;5.13;3.55;;;870.40;1152.00;;;;;;5030448;28;20033;-83
2021/09/05 12:20:59;;;;;;;11.98;3.75;;;871.10;1126.40;;;;;;5028739;28;20021;-82
2021/09/05 12:23:35;;;;;;;6.32;3.55;;;921.80;1075.20;;;;;;5027524;28;20041;-80
2021/09/05 12:26:18;;;;;;;6.55;4.15;;;947.20;1049.60;;;;;;5036372;28;20095;-80
2021/09/05 12:29:02;;;;;;;5.47;3.88;;;947.60;1024.00;;;;;;5023588;28;20033;-80
2021/09/05 12:31:45;;;;;;;6.30;3.70;;;947.20;1049.60;;;;;;5029624;28;20038;-80
2021/09/05 12:34:33;;;;;;;7.38;3.70;;;896.50;1075.20;;;;;;5023973;28;20033;-80
2021/09/05 12:36:59;;;;;;;7.07;4.03;;;870.60;1152.00;;;;;;5012143;28;20028;-81